createdAt,value
2022-11-16T00:00:24.242Z,21.33
2022-11-16T00:04:26.382Z,21.38
2022-11-16T00:08:37.052Z,19.38
2022-11-16T00:12:40.104Z,18.10
2022-11-16T00:16:44.611Z,17.63
2022-11-16T00:20:56.988Z,19.30
2022-11-16T00:25:05.086Z,18.38
2022-11-16T00:29:22.297Z,18.95
2022-11-16T00:33:26.657Z,22.02
2022-11-16T00:37:29.982Z,17.75
2022-11-16T00:41:33.204Z,18.33
2022-11-16T00:45:35.398Z,16.98
2022-11-16T00:49:38.544Z,14.60
2022-11-16T00:53:41.063Z,12.48
2022-11-16T00:57:43.833Z,11.05
2022-11-16T01:06:43.553Z,12.95
2022-11-16T01:10:45.808Z,14.32
2022-11-16T01:14:48.385Z,15.27
2022-11-16T01:18:53.139Z,16.27
2022-11-16T01:22:55.996Z,15.82
2022-11-16T01:26:58.741Z,14.30
2022-11-16T01:31:05.893Z,12.93
2022-11-16T01:35:16.318Z,11.95
2022-11-16T01:39:18.769Z,11.43
2022-11-16T01:43:28.568Z,10.20
2022-11-16T01:47:37.250Z,9.98
2022-11-16T01:51:45.105Z,9.18
2022-11-16T01:55:49.033Z,9.80
2022-11-16T02:00:02.219Z,10.60
2022-11-16T02:04:15.668Z,10.68
2022-11-16T02:09:11.142Z,11.23
2022-11-16T02:13:35.901Z,12.23
2022-11-16T02:18:02.180Z,11.02
2022-11-16T02:22:17.430Z,10.40
2022-11-16T02:26:44.561Z,9.93
2022-11-16T02:30:50.805Z,8.43
2022-11-16T02:35:03.144Z,7.10
2022-11-16T02:39:10.592Z,8.20
2022-11-16T02:43:17.991Z,6.13
2022-11-16T02:47:28.969Z,4.75
2022-11-16T02:51:35.029Z,4.00
2022-11-16T02:55:38.111Z,4.20
2022-11-16T02:59:44.425Z,4.82
2022-11-16T03:03:57.287Z,4.80
2022-11-16T03:08:16.565Z,5.03
2022-11-16T03:12:24.867Z,5.15
2022-11-16T03:16:33.124Z,5.35
2022-11-16T03:20:38.343Z,4.93
2022-11-16T03:24:41.772Z,5.82
2022-11-16T03:29:00.969Z,4.70
2022-11-16T03:33:32.933Z,5.22
2022-11-16T03:37:36.388Z,4.80
2022-11-16T03:41:42.073Z,4.88
2022-11-16T03:45:46.981Z,5.05
2022-11-16T03:53:53.692Z,4.68
2022-11-16T03:57:56.258Z,4.63
2022-11-16T04:02:00.176Z,4.15
2022-11-16T04:06:20.953Z,5.10
2022-11-16T04:10:42.605Z,5.70
2022-11-16T04:15:03.739Z,4.13
2022-11-16T04:19:28.002Z,4.28
2022-11-16T04:23:48.916Z,4.57
2022-11-16T04:28:10.158Z,4.80
2022-11-16T04:32:31.644Z,3.60
2022-11-16T04:36:52.251Z,4.07
2022-11-16T04:40:54.366Z,4.38
2022-11-16T04:45:17.024Z,3.88
2022-11-16T04:49:23.430Z,4.20
2022-11-16T04:53:27.215Z,4.90
2022-11-16T04:57:42.676Z,4.75
2022-11-16T05:02:03.277Z,4.35
2022-11-16T05:06:05.718Z,4.28
2022-11-16T05:10:10.089Z,4.03
2022-11-16T05:14:13.407Z,4.95
2022-11-16T05:22:19.892Z,4.03
2022-11-16T05:30:28.804Z,3.45
2022-11-16T05:34:34.052Z,4.00
2022-11-16T05:38:37.028Z,3.97
2022-11-16T05:42:41.203Z,3.70
2022-11-16T05:46:44.801Z,4.25
2022-11-16T05:50:47.778Z,4.32
2022-11-16T05:54:57.761Z,4.90
2022-11-16T05:59:00.348Z,5.18
2022-11-16T06:03:02.419Z,5.22
2022-11-16T06:07:07.805Z,4.85
2022-11-16T06:11:11.871Z,5.25
2022-11-16T06:19:45.449Z,3.70
2022-11-16T06:23:48.081Z,3.92
2022-11-16T06:27:50.256Z,3.97
2022-11-16T06:31:53.733Z,4.57
2022-11-16T06:35:55.835Z,5.75
2022-11-16T06:40:00.273Z,5.85
2022-11-16T06:44:04.137Z,4.90
2022-11-16T06:48:10.821Z,5.07
2022-11-16T06:52:13.815Z,4.13
2022-11-16T06:56:16.554Z,4.22
2022-11-16T07:00:27.903Z,4.40
2022-11-16T07:04:32.608Z,3.83
2022-11-16T07:08:35.754Z,4.50
2022-11-16T07:12:38.222Z,5.40
2022-11-16T07:16:41.555Z,7.70
2022-11-16T07:20:43.722Z,7.60
2022-11-16T07:24:47.002Z,7.03
2022-11-16T07:28:49.437Z,7.40
2022-11-16T07:32:59.404Z,7.40
2022-11-16T07:37:21.415Z,8.85
2022-11-16T07:41:23.856Z,9.52
2022-11-16T07:45:39.203Z,7.78
2022-11-16T07:49:45.052Z,8.02
2022-11-16T07:53:58.038Z,7.55
2022-11-16T07:58:00.233Z,8.27
2022-11-16T08:02:03.333Z,6.78
2022-11-16T08:06:19.911Z,7.47
2022-11-16T08:10:23.234Z,9.07
2022-11-16T08:14:25.713Z,9.23
2022-11-16T08:18:31.896Z,10.48
2022-11-16T08:22:34.286Z,9.52
2022-11-16T08:26:37.152Z,9.43
2022-11-16T08:30:45.591Z,11.48
2022-11-16T08:34:52.633Z,11.13
2022-11-16T08:38:54.857Z,9.60
2022-11-16T08:42:59.027Z,9.93
2022-11-16T08:47:01.677Z,9.30
2022-11-16T08:51:19.603Z,10.38
2022-11-16T08:55:28.749Z,9.70
2022-11-16T08:59:31.188Z,10.52
2022-11-16T09:03:39.018Z,10.55
2022-11-16T09:07:43.468Z,9.57
2022-11-16T09:11:45.465Z,9.68
2022-11-16T09:15:47.604Z,10.18
2022-11-16T09:19:49.812Z,10.43
2022-11-16T09:23:54.178Z,9.00
2022-11-16T09:27:56.312Z,7.68
2022-11-16T09:31:58.533Z,8.23
2022-11-16T09:36:02.697Z,5.35
2022-11-16T09:40:05.390Z,5.72
2022-11-16T09:44:35.546Z,5.15
2022-11-16T09:48:39.289Z,5.10
2022-11-16T09:52:44.838Z,5.13
2022-11-16T09:56:49.137Z,5.07
2022-11-16T10:05:03.572Z,6.28
2022-11-16T10:09:05.713Z,5.65
2022-11-16T10:13:32.818Z,5.65
2022-11-16T10:18:00.020Z,5.80
2022-11-16T10:22:05.476Z,6.35
2022-11-16T10:26:30.389Z,5.97
2022-11-16T10:30:40.501Z,6.35
2022-11-16T10:34:50.185Z,6.38
2022-11-16T10:38:52.248Z,5.85
2022-11-16T10:42:57.276Z,5.47
2022-11-16T10:47:11.520Z,6.05
2022-11-16T10:51:13.574Z,6.60
2022-11-16T10:55:16.095Z,7.65
2022-11-16T10:59:21.804Z,7.88
2022-11-16T11:03:31.934Z,7.65
2022-11-16T11:07:37.884Z,7.95
2022-11-16T11:11:58.532Z,8.85
2022-11-16T11:16:15.868Z,9.38
2022-11-16T11:20:18.084Z,9.57
2022-11-16T11:28:49.651Z,9.95
2022-11-16T11:32:53.055Z,10.60
2022-11-16T11:37:02.468Z,9.70
2022-11-16T11:41:07.423Z,8.75
2022-11-16T11:45:15.617Z,7.53
2022-11-16T11:49:30.473Z,7.85
2022-11-16T11:53:49.884Z,7.45
2022-11-16T11:57:54.027Z,7.13
2022-11-16T12:01:56.061Z,6.68
2022-11-16T12:06:12.895Z,6.68
2022-11-16T12:10:55.528Z,7.43
2022-11-16T12:15:28.660Z,5.80
2022-11-16T12:20:13.279Z,4.97
2022-11-16T12:24:35.684Z,5.20
2022-11-16T12:28:57.496Z,4.93
2022-11-16T12:33:34.104Z,5.53
2022-11-16T12:38:03.667Z,7.43
2022-11-16T12:42:13.224Z,6.25
2022-11-16T12:46:18.427Z,5.57
2022-11-16T12:50:42.036Z,5.95
2022-11-16T12:55:27.463Z,5.55
2022-11-16T12:59:49.158Z,6.28
2022-11-16T13:03:58.374Z,8.07
2022-11-16T13:08:15.532Z,10.98
2022-11-16T13:12:23.540Z,11.75
2022-11-16T13:16:26.129Z,10.20
2022-11-16T13:21:04.159Z,5.30
2022-11-16T13:25:13.025Z,6.60
2022-11-16T13:29:48.537Z,8.70
2022-11-16T13:33:56.253Z,10.05
2022-11-16T13:37:58.379Z,10.27
2022-11-16T13:42:12.576Z,9.45
2022-11-16T13:46:48.214Z,7.88
2022-11-16T13:50:46.325Z,10.48
2022-11-16T13:54:55.456Z,12.63
2022-11-16T13:58:59.099Z,12.70
2022-11-16T14:03:16.478Z,15.40
2022-11-16T14:07:50.013Z,12.73
2022-11-16T14:18:07.701Z,11.55
2022-11-16T14:22:23.474Z,17.45
2022-11-16T14:26:34.107Z,7.55
2022-11-16T14:31:00.446Z,9.00
2022-11-16T14:41:25.054Z,11.15
2022-11-16T14:45:33.313Z,11.90
2022-11-16T14:49:37.618Z,9.75
2022-11-16T14:57:43.572Z,9.07
2022-11-16T15:01:45.998Z,9.85
2022-11-16T15:05:48.693Z,14.98
2022-11-16T15:09:54.739Z,8.88
2022-11-16T15:13:56.836Z,6.78
2022-11-16T15:17:58.824Z,12.52
2022-11-16T15:22:03.219Z,29.50
2022-11-16T15:26:05.374Z,14.07
2022-11-16T15:30:15.259Z,7.95
2022-11-16T15:34:19.249Z,5.85
2022-11-16T15:38:30.380Z,4.10
2022-11-16T15:42:32.544Z,4.20
2022-11-16T15:46:35.671Z,3.88
2022-11-16T15:50:37.742Z,8.40
2022-11-16T15:54:58.416Z,3.80
2022-11-16T15:59:09.594Z,4.18
2022-11-16T16:03:24.046Z,4.57
2022-11-16T16:07:41.286Z,4.68
2022-11-16T16:11:43.470Z,4.45
2022-11-16T16:15:45.703Z,4.90
2022-11-16T16:19:56.022Z,4.93
2022-11-16T16:23:58.143Z,6.38
2022-11-16T16:28:00.723Z,7.07
2022-11-16T16:32:02.993Z,19.88
2022-11-16T16:36:05.575Z,16.05
2022-11-16T16:40:08.316Z,18.52
2022-11-16T16:44:15.469Z,13.32
2022-11-16T16:48:17.945Z,18.83
2022-11-16T16:52:20.008Z,14.73
2022-11-16T16:56:22.090Z,8.82
2022-11-16T17:00:24.896Z,10.23
2022-11-16T17:04:26.919Z,9.00
2022-11-16T17:08:38.965Z,9.05
2022-11-16T17:12:41.035Z,10.20
2022-11-16T17:16:43.029Z,11.05
2022-11-16T17:20:45.597Z,20.42
2022-11-16T17:24:47.845Z,41.63
2022-11-16T17:28:54.084Z,23.70
2022-11-16T17:32:57.071Z,26.95
2022-11-16T17:36:59.088Z,27.75
2022-11-16T17:41:09.599Z,16.85
2022-11-16T17:45:12.120Z,16.17
2022-11-16T17:49:14.154Z,20.85
2022-11-16T17:53:16.132Z,21.05
2022-11-16T17:57:18.267Z,18.83
2022-11-16T18:01:20.742Z,15.60
2022-11-16T18:05:23.002Z,14.40
2022-11-16T18:09:25.313Z,16.58
2022-11-16T18:13:27.317Z,16.23
2022-11-16T18:17:31.216Z,13.98
2022-11-16T18:21:39.824Z,11.63
2022-11-16T18:25:41.898Z,12.25
2022-11-16T18:29:44.008Z,11.98
2022-11-16T18:33:49.078Z,9.82
2022-11-16T18:37:51.381Z,8.20
2022-11-16T18:41:55.079Z,13.70
2022-11-16T18:45:57.474Z,9.73
2022-11-16T18:49:59.474Z,8.63
2022-11-16T18:54:01.500Z,9.95
2022-11-16T18:58:13.029Z,17.38
2022-11-16T19:02:24.765Z,12.20
2022-11-16T19:06:26.829Z,11.75
2022-11-16T19:10:29.120Z,10.85
2022-11-16T19:14:31.149Z,16.65
2022-11-16T19:18:33.230Z,14.57
2022-11-16T19:22:35.384Z,17.92
2022-11-16T19:26:37.479Z,20.23
2022-11-16T19:30:39.461Z,30.08
2022-11-16T19:34:41.644Z,28.95
2022-11-16T19:38:45.041Z,20.77
2022-11-16T19:42:47.172Z,23.98
2022-11-16T19:46:49.234Z,33.47
2022-11-16T19:50:51.270Z,24.45
2022-11-16T19:54:53.330Z,20.63
2022-11-16T19:58:55.982Z,15.48
2022-11-16T20:02:58.331Z,17.13
2022-11-16T20:07:00.794Z,16.27
2022-11-16T20:11:10.691Z,20.08
2022-11-16T20:15:12.678Z,19.38
2022-11-16T20:19:15.792Z,17.55
2022-11-16T20:23:19.476Z,15.82
2022-11-16T20:27:21.498Z,20.00
2022-11-16T20:31:28.778Z,21.15
2022-11-16T20:35:30.898Z,31.38
2022-11-16T20:39:33.147Z,23.02
2022-11-16T20:43:35.840Z,25.58
2022-11-16T20:47:38.044Z,17.65
2022-11-16T20:51:40.215Z,17.45
2022-11-16T20:55:42.250Z,15.25
2022-11-16T20:59:44.245Z,15.52
2022-11-16T21:03:47.080Z,11.70
2022-11-16T21:07:49.240Z,14.77
2022-11-16T21:12:09.885Z,19.95
2022-11-16T21:16:15.198Z,16.20
2022-11-16T21:20:32.779Z,20.35
2022-11-16T21:24:35.421Z,25.15
2022-11-16T21:28:38.339Z,22.52
2022-11-16T21:32:40.579Z,25.42
2022-11-16T21:36:42.823Z,24.45
2022-11-16T21:40:45.308Z,19.45
2022-11-16T21:44:47.501Z,18.15
2022-11-16T21:48:52.752Z,19.58
2022-11-16T21:52:54.864Z,18.33
2022-11-16T21:56:56.958Z,18.75
2022-11-16T22:01:02.628Z,14.10
2022-11-16T22:05:26.484Z,16.75
2022-11-16T22:09:28.518Z,16.80
2022-11-16T22:13:30.572Z,14.57
2022-11-16T22:17:33.124Z,15.27
2022-11-16T22:21:35.090Z,16.05
2022-11-16T22:25:37.332Z,16.10
2022-11-16T22:29:39.586Z,13.70
2022-11-16T22:33:41.859Z,13.45
2022-11-16T22:37:44.216Z,12.18
2022-11-16T22:41:46.438Z,12.63
2022-11-16T22:45:48.801Z,10.50
2022-11-16T22:49:50.847Z,12.60
2022-11-16T22:53:54.535Z,11.40
2022-11-16T22:57:56.684Z,15.17
2022-11-16T23:01:58.684Z,18.23
2022-11-16T23:06:00.900Z,15.77
2022-11-16T23:10:03.172Z,14.20
2022-11-16T23:14:42.901Z,16.08
2022-11-16T23:18:44.944Z,19.75
2022-11-16T23:23:06.098Z,18.65
2022-11-16T23:27:28.146Z,19.33
2022-11-16T23:31:30.143Z,20.40
2022-11-16T23:35:32.570Z,19.90
2022-11-16T23:39:34.745Z,19.90
2022-11-16T23:43:55.368Z,11.93
2022-11-16T23:47:57.341Z,11.32
2022-11-16T23:51:59.419Z,11.73
2022-11-16T23:56:06.065Z,10.15
